createdAt,value
2018-07-16T00:00:58.254Z,1010.35
2018-07-16T00:01:58.256Z,1010.38
2018-07-16T00:02:58.257Z,1010.41
2018-07-16T00:03:58.250Z,1010.38
2018-07-16T00:04:58.247Z,1010.37
2018-07-16T00:05:58.251Z,1010.41
2018-07-16T00:06:58.251Z,1010.39
2018-07-16T00:07:58.249Z,1010.40
2018-07-16T00:08:58.249Z,1010.34
2018-07-16T00:09:58.242Z,1010.41
2018-07-16T00:10:58.241Z,1010.37
2018-07-16T00:11:58.239Z,1010.38
2018-07-16T00:12:58.238Z,1010.41
2018-07-16T00:13:58.241Z,1010.40
2018-07-16T00:14:58.240Z,1010.35
2018-07-16T00:15:58.238Z,1010.37
2018-07-16T00:16:58.237Z,1010.34
2018-07-16T00:17:58.230Z,1010.30
2018-07-16T00:18:58.232Z,1010.31
2018-07-16T00:19:58.233Z,1010.27
2018-07-16T00:20:58.230Z,1010.32
2018-07-16T00:21:58.224Z,1010.35
2018-07-16T00:22:58.224Z,1010.34
2018-07-16T00:23:58.222Z,1010.30
2018-07-16T00:24:58.220Z,1010.29
2018-07-16T00:25:58.223Z,1010.28
2018-07-16T00:26:58.223Z,1010.26
2018-07-16T00:27:58.220Z,1010.23
2018-07-16T00:28:58.219Z,1010.24
2018-07-16T00:29:58.212Z,1010.25
2018-07-16T00:30:58.213Z,1010.25
2018-07-16T00:31:58.210Z,1010.28
2018-07-16T00:32:58.208Z,1010.23
2018-07-16T00:33:58.212Z,1010.25
2018-07-16T00:34:58.209Z,1010.24
2018-07-16T00:35:58.204Z,1010.22
2018-07-16T00:36:58.202Z,1010.21
2018-07-16T00:37:58.204Z,1010.21
2018-07-16T00:38:58.204Z,1010.16
2018-07-16T00:39:58.203Z,1010.14
2018-07-16T00:40:58.200Z,1010.17
2018-07-16T00:41:58.197Z,1010.14
2018-07-16T00:42:58.193Z,1010.17
2018-07-16T00:43:58.193Z,1010.11
2018-07-16T00:44:58.190Z,1010.16
2018-07-16T00:45:58.196Z,1010.10
2018-07-16T00:46:58.192Z,1010.07
2018-07-16T00:47:58.191Z,1010.08
2018-07-16T00:48:58.188Z,1010.11
2018-07-16T00:49:58.183Z,1010.09
2018-07-16T00:50:58.183Z,1010.07
2018-07-16T00:51:58.185Z,1010.04
2018-07-16T00:52:58.181Z,1010.07
2018-07-16T00:53:58.178Z,1010.00
2018-07-16T00:54:58.175Z,1010.02
2018-07-16T00:55:58.173Z,1010.02
2018-07-16T00:56:58.172Z,1010.02
2018-07-16T00:57:58.178Z,1009.98
2018-07-16T00:58:58.174Z,1009.94
2018-07-16T00:59:58.172Z,1009.94
2018-07-16T01:00:58.171Z,1009.93
2018-07-16T01:01:58.164Z,1009.90
2018-07-16T01:02:58.162Z,1009.90
2018-07-16T01:03:58.161Z,1009.92
2018-07-16T01:04:58.159Z,1009.86
2018-07-16T01:05:58.161Z,1009.88
2018-07-16T01:06:58.160Z,1009.91
2018-07-16T01:07:58.156Z,1009.89
2018-07-16T01:08:58.152Z,1009.88
2018-07-16T01:09:58.156Z,1009.86
2018-07-16T01:10:58.155Z,1009.88
2018-07-16T01:11:58.154Z,1009.83
2018-07-16T01:12:58.151Z,1009.89
2018-07-16T01:13:58.145Z,1009.85
2018-07-16T01:14:58.143Z,1009.85
2018-07-16T01:15:58.143Z,1009.83
2018-07-16T01:16:58.141Z,1009.82
2018-07-16T01:17:58.144Z,1009.80
2018-07-16T01:18:58.141Z,1009.79
2018-07-16T01:19:58.139Z,1009.78
2018-07-16T01:20:58.136Z,1009.77
2018-07-16T01:21:58.131Z,1009.80
2018-07-16T01:22:58.129Z,1009.78
2018-07-16T01:23:58.132Z,1009.76
2018-07-16T01:24:58.131Z,1009.72
2018-07-16T01:25:58.126Z,1009.74
2018-07-16T01:26:58.126Z,1009.72
2018-07-16T01:27:58.121Z,1009.72
2018-07-16T01:28:58.120Z,1009.77
2018-07-16T01:29:58.123Z,1009.72
2018-07-16T01:30:58.120Z,1009.73
2018-07-16T01:31:58.124Z,1009.75
2018-07-16T01:32:58.118Z,1009.75
2018-07-16T01:33:58.111Z,1009.76
2018-07-16T01:34:58.109Z,1009.75
2018-07-16T01:35:58.107Z,1009.79
2018-07-16T01:36:58.105Z,1009.74
2018-07-16T01:37:58.108Z,1009.80
2018-07-16T01:38:58.108Z,1009.79
2018-07-16T01:39:58.101Z,1009.75
2018-07-16T01:40:58.098Z,1009.79
2018-07-16T01:41:58.101Z,1009.76
2018-07-16T01:42:58.100Z,1009.76
2018-07-16T01:43:58.100Z,1009.73
2018-07-16T01:44:58.097Z,1009.71
2018-07-16T01:45:58.092Z,1009.72
2018-07-16T01:46:58.092Z,1009.73
2018-07-16T01:47:58.087Z,1009.75
2018-07-16T01:48:58.085Z,1009.69
2018-07-16T01:49:58.089Z,1009.71
2018-07-16T01:50:58.090Z,1009.71
2018-07-16T01:51:58.085Z,1009.72
2018-07-16T01:52:58.081Z,1009.68
2018-07-16T01:53:58.076Z,1009.64
2018-07-16T01:54:58.073Z,1009.64
2018-07-16T01:55:58.078Z,1009.64
2018-07-16T01:56:58.074Z,1009.61
2018-07-16T01:57:58.068Z,1009.59
2018-07-16T01:58:58.067Z,1009.63
2018-07-16T01:59:58.067Z,1009.62
2018-07-16T02:00:58.062Z,1009.59
2018-07-16T02:01:58.066Z,1009.60
2018-07-16T02:02:58.065Z,1009.61
2018-07-16T02:03:58.064Z,1009.56
2018-07-16T02:04:58.059Z,1009.58
2018-07-16T02:05:58.053Z,1009.58
2018-07-16T02:06:58.051Z,1009.57
2018-07-16T02:07:58.050Z,1009.57
2018-07-16T02:08:58.048Z,1009.54
2018-07-16T02:09:58.051Z,1009.51
2018-07-16T02:10:58.050Z,1009.52
2018-07-16T02:11:58.044Z,1009.55
2018-07-16T02:12:58.039Z,1009.51
2018-07-16T02:13:58.046Z,1009.49
2018-07-16T02:14:58.042Z,1009.49
2018-07-16T02:15:58.038Z,1009.52
2018-07-16T02:16:58.037Z,1009.47
2018-07-16T02:17:58.031Z,1009.53
2018-07-16T02:18:58.029Z,1009.50
2018-07-16T02:19:58.030Z,1009.49
2018-07-16T02:20:58.024Z,1009.49
2018-07-16T02:21:58.027Z,1009.46
2018-07-16T02:22:58.025Z,1009.47
2018-07-16T02:23:58.025Z,1009.48
2018-07-16T02:24:58.024Z,1009.50
2018-07-16T02:25:58.023Z,1009.47
2018-07-16T02:26:58.015Z,1009.47
2018-07-16T02:27:58.022Z,1009.50
2018-07-16T02:28:58.014Z,1009.49
2018-07-16T02:29:58.007Z,1009.49
2018-07-16T02:30:58.006Z,1009.46
2018-07-16T02:31:58.005Z,1009.51
2018-07-16T02:32:58.004Z,1009.44
2018-07-16T02:33:58.006Z,1009.47
2018-07-16T02:34:58.001Z,1009.49
2018-07-16T02:35:57.999Z,1009.46
2018-07-16T02:36:57.998Z,1009.46
2018-07-16T02:37:57.990Z,1009.46
2018-07-16T02:38:57.991Z,1009.44
2018-07-16T02:39:57.989Z,1009.44
2018-07-16T02:40:57.986Z,1009.39
2018-07-16T02:41:57.988Z,1009.40
2018-07-16T02:42:57.987Z,1009.38
2018-07-16T02:43:57.979Z,1009.43
2018-07-16T02:44:57.977Z,1009.43
2018-07-16T02:45:57.980Z,1009.38
2018-07-16T02:46:57.978Z,1009.47
2018-07-16T02:47:57.976Z,1009.38
2018-07-16T02:48:57.972Z,1009.46
2018-07-16T02:49:57.968Z,1009.42
2018-07-16T02:50:57.965Z,1009.45
2018-07-16T02:51:57.962Z,1009.48
2018-07-16T02:52:57.960Z,1009.45
2018-07-16T02:53:57.963Z,1009.47
2018-07-16T02:54:57.959Z,1009.50
2018-07-16T02:55:57.962Z,1009.50
2018-07-16T02:56:57.965Z,1009.48
2018-07-16T02:57:57.950Z,1009.48
2018-07-16T02:58:57.953Z,1009.49
2018-07-16T02:59:57.952Z,1009.49
2018-07-16T03:00:57.948Z,1009.43
2018-07-16T03:01:57.940Z,1009.50
2018-07-16T03:02:57.938Z,1009.50
2018-07-16T03:03:57.937Z,1009.48
2018-07-16T03:04:57.937Z,1009.45
2018-07-16T03:05:57.934Z,1009.52
2018-07-16T03:06:57.934Z,1009.57
2018-07-16T03:07:57.932Z,1009.54
2018-07-16T03:08:57.930Z,1009.51
2018-07-16T03:09:57.922Z,1009.47
2018-07-16T03:10:57.920Z,1009.53
2018-07-16T03:11:57.920Z,1009.50
2018-07-16T03:12:57.916Z,1009.52
2018-07-16T03:13:57.918Z,1009.52
2018-07-16T03:14:57.915Z,1009.52
2018-07-16T03:15:57.909Z,1009.49
2018-07-16T03:16:57.907Z,1009.49
2018-07-16T03:17:57.918Z,1009.46
2018-07-16T03:18:57.908Z,1009.46
2018-07-16T03:19:57.911Z,1009.45
2018-07-16T03:20:57.902Z,1009.44
2018-07-16T03:21:57.896Z,1009.45
2018-07-16T03:22:57.895Z,1009.44
2018-07-16T03:23:57.892Z,1009.46
2018-07-16T03:24:57.888Z,1009.47
2018-07-16T03:25:57.891Z,1009.46
2018-07-16T03:26:57.889Z,1009.47
2018-07-16T03:27:57.888Z,1009.43
2018-07-16T03:28:57.882Z,1009.43
2018-07-16T03:29:57.877Z,1009.49
2018-07-16T03:30:57.875Z,1009.49
2018-07-16T03:31:57.876Z,1009.44
2018-07-16T03:32:57.874Z,1009.48
2018-07-16T03:33:57.866Z,1009.48
2018-07-16T03:34:57.866Z,1009.49
2018-07-16T03:35:57.863Z,1009.49
2018-07-16T03:36:57.861Z,1009.49
2018-07-16T03:37:57.863Z,1009.47
2018-07-16T03:38:57.860Z,1009.47
2018-07-16T03:39:57.859Z,1009.45
2018-07-16T03:40:57.855Z,1009.46
2018-07-16T03:41:57.855Z,1009.49
2018-07-16T03:42:57.845Z,1009.42
2018-07-16T03:43:57.843Z,1009.47
2018-07-16T03:44:57.841Z,1009.44
2018-07-16T03:45:57.842Z,1009.44
2018-07-16T03:46:57.840Z,1009.40
2018-07-16T03:47:57.878Z,1009.44
2018-07-16T03:48:57.832Z,1009.40
2018-07-16T03:49:57.833Z,1009.45
2018-07-16T03:50:57.830Z,1009.50
2018-07-16T03:51:57.828Z,1009.44
2018-07-16T03:52:57.826Z,1009.41
2018-07-16T03:53:57.823Z,1009.45
2018-07-16T03:54:57.816Z,1009.45
2018-07-16T03:55:57.940Z,1009.44
2018-07-16T03:56:57.812Z,1009.41
2018-07-16T03:57:57.815Z,1009.38
2018-07-16T03:58:57.813Z,1009.36
2018-07-16T03:59:57.808Z,1009.43
2018-07-16T04:00:57.806Z,1009.41
2018-07-16T04:01:57.800Z,1009.40
2018-07-16T04:02:57.797Z,1009.43
2018-07-16T04:03:57.799Z,1009.48
2018-07-16T04:04:57.796Z,1009.48
2018-07-16T04:05:57.790Z,1009.52
2018-07-16T04:06:57.787Z,1009.50
2018-07-16T04:07:57.786Z,1009.49
2018-07-16T04:08:57.782Z,1009.58
2018-07-16T04:09:57.785Z,1009.53
2018-07-16T04:10:57.783Z,1009.50
2018-07-16T04:11:57.780Z,1009.54
2018-07-16T04:12:57.776Z,1009.55
2018-07-16T04:13:57.771Z,1009.55
2018-07-16T04:14:57.768Z,1009.58
2018-07-16T04:15:57.766Z,1009.57
2018-07-16T04:16:57.766Z,1009.58
2018-07-16T04:17:57.766Z,1009.61
2018-07-16T04:18:57.763Z,1009.59
2018-07-16T04:19:57.756Z,1009.59
2018-07-16T04:20:57.752Z,1009.60
2018-07-16T04:21:57.755Z,1009.60
2018-07-16T04:22:57.754Z,1009.65
2018-07-16T04:23:57.751Z,1009.65
2018-07-16T04:24:57.748Z,1009.67
2018-07-16T04:25:57.742Z,1009.62
2018-07-16T04:26:57.739Z,1009.64
2018-07-16T04:27:57.738Z,1009.68
2018-07-16T04:28:57.733Z,1009.61
2018-07-16T04:29:57.736Z,1009.65
2018-07-16T04:30:57.807Z,1009.62
2018-07-16T04:31:57.733Z,1009.65
2018-07-16T04:32:57.731Z,1009.62
2018-07-16T04:33:57.725Z,1009.60
2018-07-16T04:34:57.720Z,1009.64
2018-07-16T04:35:57.723Z,1009.59
2018-07-16T04:36:57.719Z,1009.58
2018-07-16T04:37:57.713Z,1009.57
2018-07-16T04:38:57.710Z,1009.57
2018-07-16T04:39:57.825Z,1009.54
2018-07-16T04:40:57.707Z,1009.61
2018-07-16T04:41:57.708Z,1009.59
2018-07-16T04:42:57.706Z,1009.58
2018-07-16T04:43:57.704Z,1009.62
2018-07-16T04:44:57.700Z,1009.64
2018-07-16T04:45:57.696Z,1009.66
2018-07-16T04:46:57.692Z,1009.62
2018-07-16T04:47:57.690Z,1009.60
2018-07-16T04:48:57.692Z,1009.60
2018-07-16T04:49:57.689Z,1009.62
2018-07-16T04:50:57.689Z,1009.62
2018-07-16T04:51:57.683Z,1009.59
2018-07-16T04:52:57.679Z,1009.65
2018-07-16T04:53:57.680Z,1009.67
2018-07-16T04:54:57.682Z,1009.65
2018-07-16T04:55:57.677Z,1009.65
2018-07-16T04:56:57.674Z,1009.70
2018-07-16T04:57:57.669Z,1009.73
2018-07-16T04:58:57.667Z,1009.78
2018-07-16T04:59:57.665Z,1009.79
2018-07-16T05:00:57.662Z,1009.90
2018-07-16T05:01:57.666Z,1009.94
2018-07-16T05:02:57.664Z,1009.98
2018-07-16T05:03:57.663Z,1010.02
2018-07-16T05:04:57.663Z,1010.10
2018-07-16T05:05:57.659Z,1010.16
2018-07-16T05:06:57.656Z,1010.28
2018-07-16T05:07:57.662Z,1010.31
2018-07-16T05:08:57.661Z,1010.43
2018-07-16T05:09:57.657Z,1010.45
2018-07-16T05:10:57.656Z,1010.48
2018-07-16T05:11:57.658Z,1010.55
2018-07-16T05:12:57.658Z,1010.58
2018-07-16T05:13:57.665Z,1010.61
2018-07-16T05:14:57.668Z,1010.65
2018-07-16T05:15:57.663Z,1010.69
2018-07-16T05:16:57.664Z,1010.66
2018-07-16T05:17:57.696Z,1010.74
2018-07-16T05:18:57.674Z,1010.72
2018-07-16T05:19:57.680Z,1010.71
2018-07-16T05:20:57.679Z,1010.77
2018-07-16T05:21:57.678Z,1010.78
2018-07-16T05:22:57.681Z,1010.79
2018-07-16T05:23:57.753Z,1010.84
2018-07-16T05:24:57.693Z,1010.85
2018-07-16T05:25:57.697Z,1010.88
2018-07-16T05:26:57.697Z,1010.91
2018-07-16T05:27:57.701Z,1010.95
2018-07-16T05:28:57.706Z,1010.91
2018-07-16T05:29:57.720Z,1010.94
2018-07-16T05:30:57.721Z,1010.93
2018-07-16T05:31:57.762Z,1010.95
2018-07-16T05:32:57.730Z,1010.95
2018-07-16T05:33:57.730Z,1010.93
2018-07-16T05:34:57.736Z,1010.94
2018-07-16T05:35:57.743Z,1010.99
2018-07-16T05:36:57.747Z,1010.96
2018-07-16T05:37:57.757Z,1011.01
2018-07-16T05:38:57.763Z,1010.98
2018-07-16T05:39:57.767Z,1011.00
2018-07-16T05:40:57.772Z,1011.05
2018-07-16T05:41:57.783Z,1011.01
2018-07-16T05:42:57.789Z,1011.03
2018-07-16T05:43:57.797Z,1011.03
2018-07-16T05:44:57.805Z,1011.07
2018-07-16T05:45:57.806Z,1011.07
2018-07-16T05:46:57.812Z,1011.15
2018-07-16T05:47:57.824Z,1011.14
2018-07-16T05:48:57.827Z,1011.16
2018-07-16T05:49:57.840Z,1011.21
2018-07-16T05:50:57.846Z,1011.17
2018-07-16T05:51:57.855Z,1011.20
2018-07-16T05:52:57.863Z,1011.22
2018-07-16T05:53:57.865Z,1011.24
2018-07-16T05:54:57.875Z,1011.23
2018-07-16T05:55:57.893Z,1011.24
2018-07-16T05:56:57.895Z,1011.29
2018-07-16T05:57:57.900Z,1011.32
2018-07-16T05:58:57.908Z,1011.31
2018-07-16T05:59:57.918Z,1011.33
2018-07-16T06:00:57.926Z,1011.36
2018-07-16T06:01:57.942Z,1011.34
2018-07-16T06:02:57.950Z,1011.30
2018-07-16T06:03:57.959Z,1011.32
2018-07-16T06:04:57.969Z,1011.32
2018-07-16T06:05:57.974Z,1011.38
2018-07-16T06:06:57.982Z,1011.32
2018-07-16T06:07:57.991Z,1011.40
2018-07-16T06:08:58.001Z,1011.42
2018-07-16T06:09:58.015Z,1011.38
2018-07-16T06:10:58.025Z,1011.40
2018-07-16T06:11:58.036Z,1011.44
2018-07-16T06:12:58.043Z,1011.46
2018-07-16T06:13:58.056Z,1011.44
2018-07-16T06:14:58.068Z,1011.49
2018-07-16T06:15:58.080Z,1011.51
2018-07-16T06:16:58.090Z,1011.55
2018-07-16T06:17:58.096Z,1011.56
2018-07-16T06:18:58.107Z,1011.54
2018-07-16T06:19:58.118Z,1011.56
2018-07-16T06:20:58.129Z,1011.63
2018-07-16T06:21:58.145Z,1011.57
2018-07-16T06:22:58.158Z,1011.61
2018-07-16T06:23:58.219Z,1011.58
2018-07-16T06:24:58.181Z,1011.61
2018-07-16T06:25:58.188Z,1011.59
2018-07-16T06:26:58.201Z,1011.54
2018-07-16T06:27:58.219Z,1011.52
2018-07-16T06:28:58.231Z,1011.52
2018-07-16T06:29:58.238Z,1011.54
2018-07-16T06:30:58.253Z,1011.55
2018-07-16T06:31:58.262Z,1011.56
2018-07-16T06:32:58.274Z,1011.54
2018-07-16T06:33:58.292Z,1011.49
2018-07-16T06:34:58.303Z,1011.51
2018-07-16T06:35:58.317Z,1011.52
2018-07-16T06:36:58.332Z,1011.54
2018-07-16T06:37:58.338Z,1011.53
2018-07-16T06:38:58.351Z,1011.55
2018-07-16T06:39:58.488Z,1011.57
2018-07-16T06:40:58.456Z,1011.58
2018-07-16T06:41:58.396Z,1011.61
2018-07-16T06:42:58.408Z,1011.61
2018-07-16T06:43:58.420Z,1011.64
2018-07-16T06:44:58.430Z,1011.63
2018-07-16T06:45:58.450Z,1011.63
2018-07-16T06:46:58.463Z,1011.66
2018-07-16T06:47:58.477Z,1011.67
2018-07-16T06:48:58.489Z,1011.67
2018-07-16T06:49:58.502Z,1011.72
2018-07-16T06:50:58.513Z,1011.72
2018-07-16T06:51:58.529Z,1011.75
2018-07-16T06:52:58.542Z,1011.79
2018-07-16T06:53:58.559Z,1011.74
2018-07-16T06:54:58.611Z,1011.76
2018-07-16T06:55:58.590Z,1011.74
2018-07-16T06:56:58.605Z,1011.76
2018-07-16T06:57:58.612Z,1011.75
2018-07-16T06:58:58.627Z,1011.80
2018-07-16T06:59:58.645Z,1011.80
2018-07-16T07:00:58.660Z,1011.83
2018-07-16T07:01:58.672Z,1011.84
2018-07-16T07:02:58.683Z,1011.85
2018-07-16T07:03:58.698Z,1011.85
2018-07-16T07:04:58.712Z,1011.86
2018-07-16T07:05:58.737Z,1011.86
2018-07-16T07:06:58.746Z,1011.83
2018-07-16T07:07:58.771Z,1011.82
2018-07-16T07:08:58.777Z,1011.80
2018-07-16T07:09:58.849Z,1011.82
2018-07-16T07:10:58.803Z,1011.83
2018-07-16T07:11:58.818Z,1011.80
2018-07-16T07:12:58.833Z,1011.80
2018-07-16T07:13:58.857Z,1011.80
2018-07-16T07:14:58.868Z,1011.79
2018-07-16T07:15:58.883Z,1011.79
2018-07-16T07:16:58.894Z,1011.76
2018-07-16T07:17:58.926Z,1011.77
2018-07-16T07:18:58.937Z,1011.73
2018-07-16T07:19:58.948Z,1011.69
2018-07-16T07:20:58.963Z,1011.69
2018-07-16T07:21:58.975Z,1011.71
2018-07-16T07:22:58.991Z,1011.71
2018-07-16T07:23:59.008Z,1011.74
2018-07-16T07:24:59.023Z,1011.71
2018-07-16T07:25:59.043Z,1011.70
2018-07-16T07:26:59.061Z,1011.71
2018-07-16T07:27:59.077Z,1011.71
2018-07-16T07:28:59.094Z,1011.72
2018-07-16T07:29:59.106Z,1011.75
2018-07-16T07:30:59.123Z,1011.72
2018-07-16T07:31:59.144Z,1011.73
2018-07-16T07:32:59.162Z,1011.69
2018-07-16T07:33:59.174Z,1011.63
2018-07-16T07:34:59.199Z,1011.64
2018-07-16T07:35:59.278Z,1011.64
2018-07-16T07:36:59.226Z,1010.65
2018-07-16T07:37:59.249Z,1010.60
2018-07-16T07:38:59.270Z,1010.59
2018-07-16T07:39:59.284Z,1010.57
2018-07-16T07:40:59.302Z,1010.57
2018-07-16T07:41:59.314Z,1010.56
2018-07-16T07:42:59.336Z,1010.57
2018-07-16T07:43:59.349Z,1010.58
2018-07-16T07:44:59.365Z,1010.56
2018-07-16T07:45:59.390Z,1010.55
2018-07-16T07:46:59.407Z,1010.57
2018-07-16T07:47:59.419Z,1010.53
2018-07-16T07:48:59.436Z,1010.55
2018-07-16T07:49:59.463Z,1010.55
2018-07-16T07:50:59.481Z,1010.54
2018-07-16T07:51:59.496Z,1010.52
2018-07-16T07:52:59.515Z,1010.51
2018-07-16T07:53:59.526Z,1010.49
2018-07-16T07:54:59.993Z,1010.48
2018-07-16T07:55:59.563Z,1010.48
2018-07-16T07:56:59.578Z,1010.45
2018-07-16T07:57:59.601Z,1010.47
2018-07-16T07:58:59.620Z,1010.45
2018-07-16T07:59:59.637Z,1010.46
2018-07-16T08:00:59.657Z,1010.45
2018-07-16T08:01:59.672Z,1010.40
2018-07-16T08:02:59.689Z,1010.45
2018-07-16T08:03:59.713Z,1010.41
2018-07-16T08:04:59.730Z,1010.40
2018-07-16T08:05:59.747Z,1010.39
2018-07-16T08:06:59.763Z,1010.36
2018-07-16T08:07:59.786Z,1010.33
2018-07-16T08:08:59.802Z,1010.34
2018-07-16T08:09:59.825Z,1010.33
2018-07-16T08:10:59.845Z,1010.33
2018-07-16T08:11:59.865Z,1010.34
2018-07-16T08:12:59.887Z,1010.35
2018-07-16T08:13:59.899Z,1010.33
2018-07-16T08:14:59.917Z,1010.30
2018-07-16T08:15:59.938Z,1010.30
2018-07-16T08:16:59.957Z,1010.30
2018-07-16T08:17:59.981Z,1010.31
2018-07-16T08:19:00.000Z,1010.29
2018-07-16T08:20:00.027Z,1010.30
2018-07-16T08:21:00.091Z,1010.33
2018-07-16T08:22:00.068Z,1010.29
2018-07-16T08:23:00.081Z,1010.33
2018-07-16T08:24:00.103Z,1010.29
2018-07-16T08:25:00.122Z,1010.30
2018-07-16T08:26:00.138Z,1010.32
2018-07-16T08:27:00.157Z,1010.38
2018-07-16T08:28:00.221Z,1010.36
2018-07-16T08:29:00.197Z,1010.34
2018-07-16T08:30:00.222Z,1010.34
2018-07-16T08:31:00.242Z,1010.39
2018-07-16T08:32:00.266Z,1010.39
2018-07-16T08:33:00.284Z,1010.38
2018-07-16T08:34:00.300Z,1010.34
2018-07-16T08:35:00.319Z,1010.35
2018-07-16T08:36:00.346Z,1010.39
2018-07-16T08:37:00.366Z,1010.35
2018-07-16T08:38:00.382Z,1010.38
2018-07-16T08:39:00.417Z,1010.39
2018-07-16T08:40:00.423Z,1010.37
2018-07-16T08:41:00.443Z,1010.36
2018-07-16T08:42:00.468Z,1010.35
2018-07-16T08:43:00.490Z,1010.36
2018-07-16T08:44:00.511Z,1010.38
2018-07-16T08:45:00.533Z,1010.33
2018-07-16T08:46:00.549Z,1010.33
2018-07-16T08:47:00.592Z,1010.34
2018-07-16T08:48:00.601Z,1010.33
2018-07-16T08:49:00.614Z,1010.37
2018-07-16T08:50:00.642Z,1010.33
2018-07-16T08:51:00.663Z,1010.35
2018-07-16T08:52:00.680Z,1010.36
2018-07-16T08:53:00.702Z,1010.35
2018-07-16T08:54:00.728Z,1010.35
2018-07-16T08:55:00.754Z,1010.34
2018-07-16T08:56:00.774Z,1010.32
2018-07-16T08:57:00.795Z,1010.34
2018-07-16T08:58:00.813Z,1010.34
2018-07-16T08:59:00.836Z,1010.34
2018-07-16T09:00:00.859Z,1010.32
2018-07-16T09:01:00.887Z,1010.32
2018-07-16T09:02:00.908Z,1010.30
2018-07-16T09:03:00.931Z,1010.30
2018-07-16T09:04:01.007Z,1010.29
2018-07-16T09:05:00.978Z,1010.29
2018-07-16T09:06:00.996Z,1010.31
2018-07-16T09:07:01.035Z,1010.23
2018-07-16T09:08:01.046Z,1010.22
2018-07-16T09:09:01.069Z,1010.27
2018-07-16T09:10:01.086Z,1010.21
2018-07-16T09:11:01.182Z,1010.19
2018-07-16T09:12:01.131Z,1010.27
2018-07-16T09:13:01.151Z,1010.24
2018-07-16T09:14:01.179Z,1010.21
2018-07-16T09:15:01.200Z,1010.19
2018-07-16T09:16:01.222Z,1010.18
2018-07-16T09:17:01.347Z,1010.20
2018-07-16T09:18:01.262Z,1010.18
2018-07-16T09:19:01.282Z,1010.22
2018-07-16T09:20:01.304Z,1010.19
2018-07-16T09:21:01.325Z,1010.19
2018-07-16T09:22:01.353Z,1010.23
2018-07-16T09:23:01.381Z,1010.20
2018-07-16T09:24:01.410Z,1010.20
2018-07-16T09:25:01.412Z,1010.21
2018-07-16T09:26:01.438Z,1010.21
2018-07-16T09:27:01.461Z,1010.24
2018-07-16T09:28:01.482Z,1010.24
2018-07-16T09:29:01.506Z,1010.28
2018-07-16T09:30:01.521Z,1010.28
2018-07-16T09:31:01.542Z,1010.28
2018-07-16T09:32:01.566Z,1010.30
2018-07-16T09:33:01.588Z,1010.27
2018-07-16T09:34:01.615Z,1010.25
2018-07-16T09:35:01.636Z,1010.26
2018-07-16T09:36:01.660Z,1010.20
2018-07-16T09:37:01.681Z,1010.24
2018-07-16T09:38:01.700Z,1010.21
2018-07-16T09:39:01.778Z,1010.25
2018-07-16T09:40:01.749Z,1010.23
2018-07-16T09:41:01.769Z,1010.17
2018-07-16T09:42:01.789Z,1010.18
2018-07-16T09:43:01.810Z,1010.14
2018-07-16T09:44:01.832Z,1010.16
2018-07-16T09:45:01.849Z,1010.14
2018-07-16T09:46:01.875Z,1010.13
2018-07-16T09:47:01.897Z,1010.08
2018-07-16T09:48:01.919Z,1010.09
2018-07-16T09:49:01.941Z,1010.08
2018-07-16T09:50:01.958Z,1010.05
2018-07-16T09:51:01.983Z,1010.10
2018-07-16T09:52:02.004Z,1010.09
2018-07-16T09:53:02.026Z,1010.09
2018-07-16T09:54:02.051Z,1010.08
2018-07-16T09:55:02.077Z,1010.05
2018-07-16T09:56:02.164Z,1009.98
2018-07-16T09:57:02.115Z,1009.97
2018-07-16T09:58:02.141Z,1009.99
2018-07-16T09:59:02.163Z,1009.96
2018-07-16T10:00:02.209Z,1009.99
2018-07-16T10:01:02.206Z,1010.00
2018-07-16T10:02:02.225Z,1009.95
2018-07-16T10:03:02.247Z,1009.97
2018-07-16T10:04:02.269Z,1009.94
2018-07-16T10:05:02.293Z,1009.98
2018-07-16T10:06:02.319Z,1009.94
2018-07-16T10:07:02.344Z,1009.93
2018-07-16T10:08:02.392Z,1009.96
2018-07-16T10:09:02.389Z,1009.96
2018-07-16T10:10:02.408Z,1009.95
2018-07-16T10:11:02.429Z,1009.98
2018-07-16T10:12:02.458Z,1009.96
2018-07-16T10:13:02.480Z,1009.93
2018-07-16T10:14:02.496Z,1009.95
2018-07-16T10:15:02.519Z,1009.89
2018-07-16T10:16:02.543Z,1009.89
2018-07-16T10:17:02.565Z,1009.91
2018-07-16T10:18:02.590Z,1009.83
2018-07-16T10:19:02.614Z,1009.84
2018-07-16T10:20:02.636Z,1009.82
2018-07-16T10:21:02.659Z,1009.81
2018-07-16T10:22:02.676Z,1009.81
2018-07-16T10:23:02.700Z,1009.83
2018-07-16T10:24:02.723Z,1009.79
2018-07-16T10:25:02.747Z,1009.78
2018-07-16T10:26:02.775Z,1009.81
2018-07-16T10:27:02.797Z,1009.79
2018-07-16T10:28:02.816Z,1009.83
2018-07-16T10:29:02.837Z,1009.79
2018-07-16T10:30:02.866Z,1009.74
2018-07-16T10:31:02.889Z,1009.75
2018-07-16T10:32:02.912Z,1009.76
2018-07-16T10:33:02.939Z,1009.73
2018-07-16T10:34:02.953Z,1009.77
2018-07-16T10:35:02.977Z,1009.76
2018-07-16T10:36:02.999Z,1009.80
2018-07-16T10:37:03.020Z,1009.77
2018-07-16T10:38:03.048Z,1009.77
2018-07-16T10:39:03.072Z,1009.74
2018-07-16T10:40:03.093Z,1009.76
2018-07-16T10:41:03.114Z,1009.74
2018-07-16T10:42:03.132Z,1009.70
2018-07-16T10:43:03.154Z,1009.75
2018-07-16T10:44:03.182Z,1009.74
2018-07-16T10:45:03.202Z,1009.71
2018-07-16T10:46:03.221Z,1009.71
2018-07-16T10:47:03.245Z,1009.68
2018-07-16T10:48:03.265Z,1009.69
2018-07-16T10:49:03.285Z,1009.66
2018-07-16T10:50:03.311Z,1009.66
2018-07-16T10:51:03.334Z,1009.67
2018-07-16T10:52:03.355Z,1009.67
2018-07-16T10:53:03.377Z,1009.61
2018-07-16T10:54:03.392Z,1009.59
2018-07-16T10:55:03.454Z,1009.60
2018-07-16T10:56:03.438Z,1009.60
2018-07-16T10:57:03.459Z,1009.66
2018-07-16T10:58:03.481Z,1009.62
2018-07-16T10:59:03.502Z,1009.64
2018-07-16T11:00:03.520Z,1009.62
2018-07-16T11:01:03.539Z,1009.59
2018-07-16T11:02:03.674Z,1009.53
2018-07-16T11:03:03.680Z,1009.59
2018-07-16T11:04:03.609Z,1009.54
2018-07-16T11:05:03.629Z,1009.49
2018-07-16T11:06:03.645Z,1009.49
2018-07-16T11:07:03.665Z,1009.49
2018-07-16T11:08:03.685Z,1009.47
2018-07-16T11:09:03.705Z,1009.47
2018-07-16T11:10:03.731Z,1009.46
2018-07-16T11:11:03.751Z,1009.49
2018-07-16T11:12:03.773Z,1009.50
2018-07-16T11:13:03.790Z,1009.41
2018-07-16T11:14:03.807Z,1009.43
2018-07-16T11:15:03.867Z,1009.51
2018-07-16T11:16:03.853Z,1009.45
2018-07-16T11:17:03.873Z,1009.51
2018-07-16T11:18:03.890Z,1009.45
2018-07-16T11:19:03.909Z,1009.44
2018-07-16T11:20:03.931Z,1009.41
2018-07-16T11:21:03.954Z,1009.36
2018-07-16T11:22:03.976Z,1009.29
2018-07-16T11:23:03.995Z,1009.33
2018-07-16T11:24:04.017Z,1009.23
2018-07-16T11:25:04.036Z,1009.15
2018-07-16T11:26:04.053Z,1009.15
2018-07-16T11:27:04.071Z,1009.07
2018-07-16T11:28:04.090Z,1009.03
2018-07-16T11:29:04.108Z,1009.01
2018-07-16T11:30:04.131Z,1009.03
2018-07-16T11:31:04.154Z,1008.98
2018-07-16T11:32:04.164Z,1008.97
2018-07-16T11:33:04.181Z,1008.96
2018-07-16T11:34:04.202Z,1008.94
2018-07-16T11:35:04.220Z,1008.84
2018-07-16T11:36:04.237Z,1008.88
2018-07-16T11:37:04.253Z,1008.84
2018-07-16T11:38:04.270Z,1008.82
2018-07-16T11:39:04.280Z,1008.84
2018-07-16T11:40:04.296Z,1008.79
2018-07-16T11:41:04.311Z,1008.78
2018-07-16T11:42:04.329Z,1008.77
2018-07-16T11:43:04.344Z,1008.78
2018-07-16T11:44:04.359Z,1008.74
2018-07-16T11:45:04.373Z,1008.71
2018-07-16T11:46:04.427Z,1008.72
2018-07-16T11:47:04.395Z,1008.65
2018-07-16T11:48:04.419Z,1008.68
2018-07-16T11:49:04.425Z,1008.69
2018-07-16T11:50:04.435Z,1008.65
2018-07-16T11:51:04.446Z,1008.60
2018-07-16T11:52:04.491Z,1008.57
2018-07-16T11:53:04.468Z,1008.58
2018-07-16T11:54:04.484Z,1008.59
2018-07-16T11:55:04.496Z,1008.56
2018-07-16T11:56:04.508Z,1008.50
2018-07-16T11:57:04.519Z,1008.53
2018-07-16T11:58:04.525Z,1008.55
2018-07-16T11:59:04.711Z,1008.54
2018-07-16T12:00:04.545Z,1008.52
2018-07-16T12:01:04.555Z,1008.48
2018-07-16T12:02:04.580Z,1008.47
2018-07-16T12:03:04.583Z,1008.44
2018-07-16T12:04:04.587Z,1008.49
2018-07-16T12:05:04.659Z,1008.47
2018-07-16T12:06:04.609Z,1008.45